createdAt,value
2019-01-14T00:00:43.615Z,16.87
2019-01-14T00:03:12.884Z,22.80
2019-01-14T00:05:42.297Z,30.50
2019-01-14T00:08:11.651Z,20.43
2019-01-14T00:10:40.924Z,27.13
2019-01-14T00:13:10.209Z,23.87
2019-01-14T00:15:39.532Z,17.13
2019-01-14T00:18:08.797Z,14.97
2019-01-14T00:20:38.126Z,31.03
2019-01-14T00:23:07.466Z,30.97
2019-01-14T00:25:36.783Z,22.47
2019-01-14T00:28:06.051Z,25.80
2019-01-14T00:30:35.336Z,28.80
2019-01-14T00:33:04.596Z,20.13
2019-01-14T00:35:33.877Z,35.43
2019-01-14T00:38:03.132Z,32.13
2019-01-14T00:40:32.427Z,38.83
2019-01-14T00:43:02.075Z,22.20
2019-01-14T00:45:31.373Z,37.17
2019-01-14T00:48:00.625Z,24.70
2019-01-14T00:50:29.922Z,22.17
2019-01-14T00:52:59.250Z,18.93
2019-01-14T00:55:28.538Z,10.67
2019-01-14T00:57:57.774Z,3.03
2019-01-14T01:00:27.132Z,2.03
2019-01-14T01:02:56.400Z,8.83
2019-01-14T01:05:25.655Z,9.47
2019-01-14T01:07:54.920Z,4.33
2019-01-14T01:10:24.163Z,7.03
2019-01-14T01:12:53.454Z,13.97
2019-01-14T01:15:22.707Z,12.47
2019-01-14T01:17:51.986Z,10.93
2019-01-14T01:20:21.852Z,7.47
2019-01-14T01:22:51.134Z,12.53
2019-01-14T01:25:20.389Z,18.77
2019-01-14T01:27:49.668Z,13.23
2019-01-14T01:30:19.648Z,10.03
2019-01-14T01:32:49.296Z,14.60
2019-01-14T01:35:18.696Z,18.20
2019-01-14T01:37:47.972Z,10.67
2019-01-14T01:40:19.292Z,17.33
2019-01-14T01:42:48.660Z,23.77
2019-01-14T01:45:18.213Z,32.13
2019-01-14T01:47:47.876Z,25.77
2019-01-14T01:50:18.986Z,23.70
2019-01-14T01:52:48.242Z,23.33
2019-01-14T01:55:17.824Z,26.73
2019-01-14T01:57:47.071Z,21.03
2019-01-14T02:00:18.915Z,19.07
2019-01-14T02:02:48.277Z,29.43
2019-01-14T02:05:17.952Z,23.60
2019-01-14T02:07:47.537Z,29.40
2019-01-14T02:10:19.281Z,27.07
2019-01-14T02:12:48.528Z,22.33
2019-01-14T02:15:18.190Z,17.27
2019-01-14T02:17:47.479Z,28.00
2019-01-14T02:20:18.007Z,37.67
2019-01-14T02:22:47.569Z,28.13
2019-01-14T02:25:17.738Z,27.43
2019-01-14T02:27:47.004Z,37.43
2019-01-14T02:30:22.148Z,28.77
2019-01-14T02:32:51.597Z,36.23
2019-01-14T02:35:20.955Z,34.23
2019-01-14T02:37:50.231Z,21.77
2019-01-14T02:40:21.627Z,27.80
2019-01-14T02:42:50.963Z,20.83
2019-01-14T02:45:20.343Z,26.67
2019-01-14T02:47:49.627Z,26.97
2019-01-14T02:50:18.882Z,47.27
2019-01-14T02:52:48.248Z,25.40
2019-01-14T02:55:17.524Z,38.60
2019-01-14T02:57:47.390Z,28.33
2019-01-14T03:00:24.395Z,33.60
2019-01-14T03:02:53.684Z,27.50
2019-01-14T03:05:23.160Z,27.17
2019-01-14T03:07:52.522Z,26.93
2019-01-14T03:10:21.771Z,26.80
2019-01-14T03:12:51.048Z,20.10
2019-01-14T03:15:20.619Z,18.27
2019-01-14T03:17:49.975Z,33.53
2019-01-14T03:20:19.240Z,33.83
2019-01-14T03:22:48.599Z,27.67
2019-01-14T03:25:18.262Z,38.53
2019-01-14T03:27:47.533Z,29.93
2019-01-14T03:30:18.786Z,24.47
2019-01-14T03:32:48.155Z,18.60
2019-01-14T03:35:17.713Z,29.20
2019-01-14T03:37:46.969Z,30.30
2019-01-14T03:40:18.120Z,9.23
2019-01-14T03:42:47.690Z,36.50
2019-01-14T03:45:17.080Z,20.30
2019-01-14T03:47:46.355Z,38.97
2019-01-14T03:50:26.149Z,18.10
2019-01-14T03:52:55.418Z,25.30
2019-01-14T03:55:24.696Z,33.43
2019-01-14T03:57:54.357Z,44.90
2019-01-14T04:00:23.649Z,22.50
2019-01-14T04:02:52.891Z,25.53
2019-01-14T04:05:22.177Z,30.03
2019-01-14T04:07:51.433Z,34.47
2019-01-14T04:10:20.828Z,23.40
2019-01-14T04:12:50.105Z,31.53
2019-01-14T04:15:20.179Z,20.80
2019-01-14T04:17:49.551Z,23.73
2019-01-14T04:20:19.763Z,22.20
2019-01-14T04:22:49.203Z,10.10
2019-01-14T04:25:18.463Z,16.10
2019-01-14T04:27:47.750Z,25.07
2019-01-14T04:30:19.729Z,18.47
2019-01-14T04:32:49.250Z,11.40
2019-01-14T04:35:18.828Z,14.47
2019-01-14T04:37:48.100Z,28.93
2019-01-14T04:40:17.624Z,20.73
2019-01-14T04:42:46.908Z,15.10
2019-01-14T04:45:16.512Z,21.00
2019-01-14T04:47:45.799Z,7.03
2019-01-14T04:50:17.795Z,8.00
2019-01-14T04:52:47.164Z,12.30
2019-01-14T04:55:16.420Z,12.63
2019-01-14T04:57:45.688Z,9.57
2019-01-14T05:00:17.594Z,14.93
2019-01-14T05:02:46.896Z,16.10
2019-01-14T05:05:16.652Z,14.83
2019-01-14T05:07:45.971Z,11.57
2019-01-14T05:10:15.784Z,5.90
2019-01-14T05:12:45.041Z,5.30
2019-01-14T05:15:14.414Z,8.90
2019-01-14T05:17:43.675Z,16.77
2019-01-14T05:20:16.552Z,10.03
2019-01-14T05:22:45.818Z,8.50
2019-01-14T05:25:15.096Z,18.73
2019-01-14T05:27:44.540Z,16.67
2019-01-14T05:30:14.109Z,13.43
2019-01-14T05:32:43.375Z,18.57
2019-01-14T05:35:13.036Z,9.93
2019-01-14T05:37:42.283Z,9.87
2019-01-14T05:40:16.788Z,6.57
2019-01-14T05:42:46.049Z,7.13
2019-01-14T05:45:15.443Z,8.27
2019-01-14T05:47:44.697Z,12.10
2019-01-14T05:50:14.457Z,8.93
2019-01-14T05:52:43.752Z,9.90
2019-01-14T05:55:13.147Z,9.70
2019-01-14T05:57:42.430Z,9.87
2019-01-14T06:00:23.660Z,12.23
2019-01-14T06:02:52.945Z,6.07
2019-01-14T06:05:22.283Z,7.90
2019-01-14T06:07:51.664Z,7.30
2019-01-14T06:10:20.920Z,12.07
2019-01-14T06:12:50.291Z,12.43
2019-01-14T06:15:19.753Z,20.37
2019-01-14T06:17:49.026Z,17.30
2019-01-14T06:20:18.897Z,21.83
2019-01-14T06:22:48.164Z,22.83
2019-01-14T06:25:17.703Z,19.07
2019-01-14T06:27:47.092Z,18.43
2019-01-14T06:30:19.015Z,14.10
2019-01-14T06:32:48.305Z,17.20
2019-01-14T06:35:17.576Z,10.10
2019-01-14T06:37:52.333Z,22.70
2019-01-14T06:40:19.068Z,17.70
2019-01-14T06:42:48.380Z,9.70
2019-01-14T06:45:17.804Z,14.10
2019-01-14T06:47:47.390Z,21.63
2019-01-14T06:50:17.920Z,15.10
2019-01-14T06:52:47.336Z,20.97
2019-01-14T06:55:16.988Z,15.20
2019-01-14T06:57:46.715Z,14.07
2019-01-14T07:00:27.679Z,11.33
2019-01-14T07:02:56.973Z,12.23
2019-01-14T07:05:26.244Z,15.03
2019-01-14T07:07:59.598Z,11.93
2019-01-14T07:10:29.206Z,14.03
2019-01-14T07:12:58.502Z,3.80
2019-01-14T07:15:27.768Z,14.10
2019-01-14T07:17:57.020Z,7.97
2019-01-14T07:20:27.610Z,22.00
2019-01-14T07:22:56.875Z,10.20
2019-01-14T07:25:26.254Z,25.93
2019-01-14T07:27:55.597Z,10.83
2019-01-14T07:30:24.954Z,10.27
2019-01-14T07:32:54.212Z,15.37
2019-01-14T07:35:23.500Z,17.70
2019-01-14T07:37:52.768Z,12.63
2019-01-14T07:40:22.144Z,13.87
2019-01-14T07:42:51.423Z,20.03
2019-01-14T07:45:21.477Z,16.03
2019-01-14T07:47:50.743Z,5.57
2019-01-14T07:50:20.260Z,12.03
2019-01-14T07:52:49.873Z,6.20
2019-01-14T07:55:19.136Z,9.43
2019-01-14T07:57:48.417Z,8.90
2019-01-14T08:00:23.087Z,2.73
2019-01-14T08:02:52.433Z,7.53
2019-01-14T08:05:21.722Z,9.10
2019-01-14T08:07:51.119Z,10.73
2019-01-14T08:10:20.374Z,12.03
2019-01-14T08:12:49.662Z,7.27
2019-01-14T08:15:21.094Z,14.03
2019-01-14T08:17:50.380Z,13.90
2019-01-14T08:20:19.655Z,11.77
2019-01-14T08:22:48.920Z,7.27
2019-01-14T08:25:18.185Z,10.00
2019-01-14T08:27:47.447Z,14.13
2019-01-14T08:30:26.974Z,4.73
2019-01-14T08:32:56.318Z,5.20
2019-01-14T08:35:25.608Z,12.70
2019-01-14T08:37:54.876Z,9.17
2019-01-14T08:40:24.151Z,13.50
2019-01-14T08:42:53.420Z,10.90
2019-01-14T08:45:22.709Z,10.90
2019-01-14T08:47:51.979Z,10.00
2019-01-14T08:50:21.896Z,22.40
2019-01-14T08:52:51.888Z,15.73
2019-01-14T08:55:21.167Z,15.93
2019-01-14T08:57:54.491Z,13.50
2019-01-14T09:00:22.915Z,9.00
2019-01-14T09:02:52.388Z,5.20
2019-01-14T09:05:21.673Z,7.27
2019-01-14T09:07:51.081Z,12.90
2019-01-14T09:10:25.249Z,7.50
2019-01-14T09:12:54.535Z,7.60
2019-01-14T09:15:23.854Z,7.67
2019-01-14T09:17:53.146Z,6.87
2019-01-14T09:20:24.279Z,7.03
2019-01-14T09:22:53.553Z,8.23
2019-01-14T09:25:22.827Z,9.33
2019-01-14T09:27:52.368Z,10.63
2019-01-14T09:30:23.413Z,10.23
2019-01-14T09:32:53.116Z,13.53
2019-01-14T09:35:22.379Z,9.93
2019-01-14T09:37:51.665Z,11.00
2019-01-14T09:40:22.642Z,8.30
2019-01-14T09:42:51.961Z,9.10
2019-01-14T09:45:21.256Z,11.40
2019-01-14T09:47:50.592Z,11.03
2019-01-14T09:50:19.881Z,17.43
2019-01-14T09:52:49.144Z,9.67
2019-01-14T09:55:19.857Z,21.03
2019-01-14T09:57:49.175Z,11.60
2019-01-14T10:00:18.445Z,10.47
2019-01-14T10:02:47.884Z,9.67
2019-01-14T10:05:18.833Z,8.10
2019-01-14T10:07:48.389Z,5.00
2019-01-14T10:10:18.752Z,11.10
2019-01-14T10:12:48.220Z,6.27
2019-01-14T10:15:22.671Z,7.83
2019-01-14T10:17:56.782Z,10.43
2019-01-14T10:20:26.079Z,7.43
2019-01-14T10:22:55.347Z,4.80
2019-01-14T10:25:24.999Z,5.10
2019-01-14T10:27:54.389Z,9.77
2019-01-14T10:30:23.669Z,14.17
2019-01-14T10:32:52.961Z,16.80
2019-01-14T10:35:22.216Z,6.17
2019-01-14T10:37:51.484Z,5.50
2019-01-14T10:40:20.765Z,12.37
2019-01-14T10:42:50.044Z,13.30
2019-01-14T10:45:21.002Z,22.70
2019-01-14T10:47:50.310Z,7.10
2019-01-14T10:50:20.193Z,10.43
2019-01-14T10:52:49.483Z,15.27
2019-01-14T10:55:18.747Z,11.80
2019-01-14T10:57:48.400Z,7.67
2019-01-14T11:00:22.938Z,16.30
2019-01-14T11:02:52.404Z,15.50
2019-01-14T11:05:27.055Z,11.17
2019-01-14T11:07:56.739Z,15.20
2019-01-14T11:10:26.011Z,15.40
2019-01-14T11:12:55.277Z,24.63
2019-01-14T11:15:24.568Z,13.77
2019-01-14T11:17:53.830Z,11.47
2019-01-14T11:20:25.627Z,7.77
2019-01-14T11:22:54.991Z,13.63
2019-01-14T11:25:24.316Z,12.30
2019-01-14T11:27:53.584Z,11.60
2019-01-14T11:30:25.379Z,11.27
2019-01-14T11:32:54.636Z,7.57
2019-01-14T11:35:23.904Z,5.53
2019-01-14T11:37:53.166Z,10.30
2019-01-14T11:40:24.933Z,9.77
2019-01-14T11:42:54.200Z,11.63
2019-01-14T11:45:23.476Z,11.63
2019-01-14T11:47:52.757Z,9.63
2019-01-14T11:50:22.137Z,1.60
2019-01-14T11:52:51.406Z,2.97
2019-01-14T11:55:21.038Z,5.80
2019-01-14T11:57:50.318Z,5.27
2019-01-14T12:00:22.496Z,5.63
2019-01-14T12:02:51.884Z,5.00
2019-01-14T12:05:21.245Z,7.10
2019-01-14T12:07:50.560Z,2.10
2019-01-14T12:10:19.919Z,4.53
2019-01-14T12:12:49.294Z,3.77
2019-01-14T12:15:21.345Z,4.80
2019-01-14T12:17:50.623Z,4.23
2019-01-14T12:20:19.887Z,4.47
2019-01-14T12:22:49.160Z,8.97
2019-01-14T12:25:19.859Z,11.40
2019-01-14T12:27:49.393Z,9.77
2019-01-14T12:30:31.454Z,4.23
2019-01-14T12:33:00.909Z,4.20
2019-01-14T12:35:30.285Z,4.30
2019-01-14T12:37:59.790Z,12.50
2019-01-14T12:40:29.045Z,9.20
2019-01-14T12:42:58.386Z,9.20
2019-01-14T12:45:27.655Z,6.43
2019-01-14T12:47:56.913Z,9.63
2019-01-14T12:50:26.240Z,8.60
2019-01-14T12:52:55.495Z,6.37
2019-01-14T12:55:24.768Z,7.87
2019-01-14T12:57:54.146Z,6.80
2019-01-14T13:00:25.315Z,12.67
2019-01-14T13:02:58.537Z,12.93
2019-01-14T13:05:26.425Z,16.60
2019-01-14T13:07:55.696Z,7.50
2019-01-14T13:10:24.969Z,11.13
2019-01-14T13:12:54.225Z,8.87
2019-01-14T13:15:25.073Z,15.10
2019-01-14T13:17:54.356Z,8.53
2019-01-14T13:20:23.870Z,9.13
2019-01-14T13:22:53.172Z,8.60
2019-01-14T13:25:22.601Z,14.63
2019-01-14T13:27:51.912Z,15.20
2019-01-14T13:30:23.743Z,5.30
2019-01-14T13:32:53.033Z,9.90
2019-01-14T13:35:22.308Z,13.70
2019-01-14T13:37:51.639Z,11.57
2019-01-14T13:40:20.912Z,14.10
2019-01-14T13:42:50.197Z,2.73
2019-01-14T13:45:20.143Z,1.80
2019-01-14T13:47:49.577Z,14.87
2019-01-14T13:50:21.098Z,6.63
2019-01-14T13:52:50.369Z,7.77
2019-01-14T13:55:20.247Z,11.43
2019-01-14T13:57:49.515Z,6.07
2019-01-14T14:00:20.976Z,2.30
2019-01-14T14:02:50.251Z,8.80
2019-01-14T14:05:19.554Z,8.27
2019-01-14T14:07:48.816Z,9.43
2019-01-14T14:10:23.499Z,7.23
2019-01-14T14:12:52.752Z,4.00
2019-01-14T14:15:22.463Z,8.90
2019-01-14T14:17:51.721Z,4.97
2019-01-14T14:20:21.022Z,4.30
2019-01-14T14:22:50.289Z,4.63
2019-01-14T14:25:19.601Z,12.40
2019-01-14T14:27:48.857Z,4.90
2019-01-14T14:30:32.948Z,5.63
2019-01-14T14:33:02.289Z,4.60
2019-01-14T14:35:31.632Z,8.37
2019-01-14T14:38:01.593Z,3.23
2019-01-14T14:40:31.041Z,6.20
2019-01-14T14:43:00.437Z,7.17
2019-01-14T14:45:29.748Z,4.03
2019-01-14T14:47:59.008Z,3.33
2019-01-14T14:50:28.340Z,6.23
2019-01-14T14:52:57.626Z,4.10
2019-01-14T14:55:26.893Z,6.60
2019-01-14T14:57:56.173Z,10.00
2019-01-14T15:00:25.442Z,4.93
2019-01-14T15:02:54.724Z,7.47
2019-01-14T15:05:24.009Z,2.83
2019-01-14T15:07:53.288Z,6.50
2019-01-14T15:10:23.402Z,13.50
2019-01-14T15:12:52.815Z,4.40
2019-01-14T15:15:24.150Z,6.97
2019-01-14T15:17:53.419Z,8.77
2019-01-14T15:20:24.112Z,11.80
2019-01-14T15:22:53.409Z,6.23
2019-01-14T15:25:22.768Z,10.47
2019-01-14T15:27:52.056Z,11.50
2019-01-14T15:30:23.771Z,5.20
2019-01-14T15:32:53.036Z,6.83
2019-01-14T15:35:22.323Z,10.13
2019-01-14T15:37:51.579Z,9.67
2019-01-14T15:40:21.162Z,3.00
2019-01-14T15:42:50.429Z,2.03
2019-01-14T15:45:20.496Z,3.20
2019-01-14T15:47:49.755Z,2.50
2019-01-14T15:50:19.033Z,8.43
2019-01-14T15:52:48.435Z,6.83
2019-01-14T15:55:20.332Z,2.37
2019-01-14T15:57:51.435Z,5.17
2019-01-14T16:00:21.513Z,4.03
2019-01-14T16:02:50.831Z,3.27
2019-01-14T16:05:20.265Z,8.53
2019-01-14T16:07:53.045Z,3.67
2019-01-14T16:10:24.634Z,16.03
2019-01-14T16:12:53.932Z,9.50
2019-01-14T16:15:23.384Z,3.83
2019-01-14T16:17:52.624Z,5.80
2019-01-14T16:20:24.035Z,5.13
2019-01-14T16:22:53.442Z,7.30
2019-01-14T16:25:23.132Z,7.73
2019-01-14T16:27:52.409Z,9.60
2019-01-14T16:30:23.946Z,12.27
2019-01-14T16:32:53.456Z,6.43
2019-01-14T16:35:23.098Z,11.13
2019-01-14T16:37:52.534Z,16.87
2019-01-14T16:40:21.861Z,3.70
2019-01-14T16:42:51.131Z,8.00
2019-01-14T16:45:25.248Z,9.93
2019-01-14T16:47:54.568Z,6.03
2019-01-14T16:50:23.949Z,5.00
2019-01-14T16:52:53.241Z,20.23
2019-01-14T16:55:47.329Z,7.30
2019-01-14T16:58:16.689Z,4.70
2019-01-14T17:00:45.939Z,16.60
2019-01-14T17:03:15.223Z,2.43
2019-01-14T17:05:44.509Z,4.10
2019-01-14T17:08:13.798Z,5.63
2019-01-14T17:10:43.053Z,16.50
2019-01-14T17:13:12.334Z,9.97
2019-01-14T17:15:41.607Z,2.27
2019-01-14T17:18:10.866Z,8.00
2019-01-14T17:20:40.135Z,8.43
2019-01-14T17:23:09.421Z,12.73
2019-01-14T17:25:38.727Z,9.37
2019-01-14T17:28:07.986Z,4.43
2019-01-14T17:30:37.294Z,8.50
2019-01-14T17:33:06.587Z,28.10
2019-01-14T17:35:35.918Z,8.70
2019-01-14T17:38:05.280Z,6.43
2019-01-14T17:40:34.577Z,10.10
2019-01-14T17:43:03.837Z,18.80
2019-01-14T17:45:33.191Z,5.97
2019-01-14T17:48:02.472Z,11.83
2019-01-14T17:50:32.351Z,5.53
2019-01-14T17:53:01.616Z,3.70
2019-01-14T17:55:30.969Z,7.00
2019-01-14T17:58:00.244Z,4.90
2019-01-14T18:00:29.532Z,7.53
2019-01-14T18:02:58.780Z,7.80
2019-01-14T18:05:28.090Z,11.20
2019-01-14T18:07:57.338Z,8.23
2019-01-14T18:10:26.690Z,9.43
2019-01-14T18:12:55.974Z,6.47
2019-01-14T18:15:25.245Z,17.03
2019-01-14T18:17:54.538Z,15.50
2019-01-14T18:20:23.790Z,9.33
2019-01-14T18:22:53.099Z,16.47
2019-01-14T18:25:22.345Z,7.60
2019-01-14T18:27:51.629Z,11.33
2019-01-14T18:30:21.789Z,6.70
2019-01-14T18:32:51.066Z,10.00
2019-01-14T18:35:20.346Z,12.03
2019-01-14T18:37:49.623Z,13.70
2019-01-14T18:40:19.205Z,19.67
2019-01-14T18:42:49.016Z,9.87
2019-01-14T18:45:20.118Z,15.40
2019-01-14T18:47:49.675Z,5.70
2019-01-14T18:50:21.317Z,6.03
2019-01-14T18:52:50.756Z,9.67
2019-01-14T18:55:20.040Z,10.70
2019-01-14T18:57:49.681Z,10.87
2019-01-14T19:00:23.583Z,8.83
2019-01-14T19:02:53.017Z,9.63
2019-01-14T19:05:22.400Z,13.33
2019-01-14T19:07:52.404Z,12.93
2019-01-14T19:10:21.982Z,5.90
2019-01-14T19:12:51.330Z,9.80
2019-01-14T19:15:21.666Z,14.13
2019-01-14T19:17:52.248Z,4.30
2019-01-14T19:20:29.210Z,3.90
2019-01-14T19:22:58.673Z,17.93
2019-01-14T19:25:28.182Z,4.53
2019-01-14T19:27:57.514Z,9.93
2019-01-14T19:30:26.886Z,7.60
2019-01-14T19:32:56.146Z,6.53
2019-01-14T19:35:25.484Z,6.90
2019-01-14T19:37:54.734Z,7.00
2019-01-14T19:40:24.035Z,7.43
2019-01-14T19:42:53.315Z,10.47
2019-01-14T19:45:23.191Z,8.63
2019-01-14T19:47:52.567Z,4.30
2019-01-14T19:50:23.595Z,20.33
2019-01-14T19:52:53.632Z,13.40
2019-01-14T19:55:22.918Z,8.57
2019-01-14T19:57:52.335Z,11.13
2019-01-14T20:00:28.319Z,14.10
2019-01-14T20:02:57.893Z,6.20
2019-01-14T20:05:27.161Z,8.03
2019-01-14T20:07:56.763Z,11.07
2019-01-14T20:10:26.074Z,12.63
2019-01-14T20:12:56.117Z,11.57
2019-01-14T20:15:25.436Z,9.40
2019-01-14T20:17:54.804Z,13.40
2019-01-14T20:20:24.101Z,9.30
2019-01-14T20:22:53.449Z,17.10
2019-01-14T20:25:22.713Z,11.20
2019-01-14T20:27:51.996Z,4.60
2019-01-14T20:30:23.160Z,8.77
2019-01-14T20:32:52.512Z,8.43
2019-01-14T20:35:22.104Z,14.33
2019-01-14T20:37:51.371Z,4.40
2019-01-14T20:40:20.652Z,17.50
2019-01-14T20:42:49.999Z,10.93
2019-01-14T20:45:19.271Z,12.67
2019-01-14T20:47:48.540Z,5.57
2019-01-14T20:50:19.893Z,7.80
2019-01-14T20:52:49.147Z,6.73
2019-01-14T20:55:18.450Z,13.50
2019-01-14T20:57:47.720Z,9.97
2019-01-14T21:00:20.126Z,12.23
2019-01-14T21:02:49.431Z,13.93
2019-01-14T21:05:19.036Z,7.80
2019-01-14T21:07:48.365Z,17.50
2019-01-14T21:10:17.854Z,8.37
2019-01-14T21:12:47.145Z,11.77
2019-01-14T21:15:16.513Z,8.30
2019-01-14T21:17:45.943Z,8.27
2019-01-14T21:20:18.328Z,7.23
2019-01-14T21:22:47.848Z,10.30
2019-01-14T21:25:17.128Z,15.87
2019-01-14T21:27:46.437Z,7.73
2019-01-14T21:30:18.182Z,25.03
2019-01-14T21:32:47.529Z,5.33
2019-01-14T21:35:16.916Z,19.60
2019-01-14T21:37:46.305Z,14.57
2019-01-14T21:40:15.592Z,9.50
2019-01-14T21:42:44.884Z,12.30
2019-01-14T21:45:14.591Z,7.90
2019-01-14T21:47:43.991Z,12.87
2019-01-14T21:50:15.756Z,26.53
2019-01-14T21:52:45.064Z,13.20
2019-01-14T21:55:16.795Z,6.90
2019-01-14T21:57:46.120Z,9.03
2019-01-14T22:00:18.360Z,23.07
2019-01-14T22:02:47.763Z,14.10
2019-01-14T22:05:17.120Z,14.63
2019-01-14T22:07:46.506Z,34.63
2019-01-14T22:10:17.974Z,4.03
2019-01-14T22:12:47.344Z,17.57
2019-01-14T22:15:17.050Z,14.33
2019-01-14T22:17:46.337Z,9.00
2019-01-14T22:20:18.247Z,15.93
2019-01-14T22:22:47.580Z,11.50
2019-01-14T22:25:16.894Z,10.33
2019-01-14T22:27:46.220Z,12.00
2019-01-14T22:30:18.404Z,11.47
2019-01-14T22:32:47.737Z,22.20
2019-01-14T22:35:17.046Z,6.50
2019-01-14T22:37:46.404Z,14.30
2019-01-14T22:40:16.117Z,13.13
2019-01-14T22:42:45.409Z,13.17
2019-01-14T22:45:14.853Z,14.60
2019-01-14T22:47:44.136Z,10.03
2019-01-14T22:50:15.295Z,13.33
2019-01-14T22:52:44.638Z,15.73
2019-01-14T22:55:13.944Z,20.50
2019-01-14T22:57:43.216Z,15.03
2019-01-14T23:01:21.141Z,14.03
2019-01-14T23:03:52.247Z,22.70
2019-01-14T23:06:21.549Z,12.03
2019-01-14T23:08:50.903Z,37.00
2019-01-14T23:11:21.235Z,18.23
2019-01-14T23:13:50.705Z,22.30
2019-01-14T23:16:20.208Z,23.60
2019-01-14T23:18:49.931Z,17.27
2019-01-14T23:21:19.247Z,16.03
2019-01-14T23:23:48.562Z,33.00
2019-01-14T23:26:17.846Z,17.10
2019-01-14T23:28:47.247Z,12.05
2019-01-14T23:31:16.595Z,15.88
2019-01-14T23:33:45.944Z,18.12
2019-01-14T23:36:15.297Z,15.50
2019-01-14T23:38:44.908Z,11.70
2019-01-14T23:41:14.508Z,23.40
2019-01-14T23:43:44.028Z,14.23
2019-01-14T23:46:13.565Z,13.72
2019-01-14T23:48:43.267Z,23.73
2019-01-14T23:51:12.609Z,11.15
2019-01-14T23:53:42.019Z,18.07
2019-01-14T23:56:11.371Z,20.37
2019-01-14T23:58:40.669Z,13.40
